Time;durP1;ratioP1;P1;durP2;ratioP2;P2;SDS_P1;SDS_P2;PMS_P1;PMS_P2;Temp;Humidity;BMP_temperature;BMP_pressure;BME280_temperature;BME280_humidity;BME280_pressure;Samples;Min_cycle;Max_cycle;Signal;HPM_P1;HPM_P2
2022/04/08 00:01:25;;;;;;;2.60;1.30;;;16.20;54.40;;;;;;5134831;27;20555;-67
2022/04/08 00:03:52;;;;;;;2.42;0.98;;;16.20;53.80;;;;;;5134675;27;20169;-66
2022/04/08 00:06:18;;;;;;;4.15;1.13;;;16.20;53.80;;;;;;5134683;27;20674;-67
2022/04/08 00:08:44;;;;;;;2.50;1.17;;;16.10;53.80;;;;;;5135108;27;20183;-67
2022/04/08 00:11:10;;;;;;;2.15;1.02;;;16.10;53.80;;;;;;5134173;27;20642;-68
2022/04/08 00:13:35;;;;;;;1.45;1.10;;;16.10;53.80;;;;;;5134981;27;20168;-68
2022/04/08 00:16:01;;;;;;;2.17;0.88;;;16.10;53.80;;;;;;5134450;27;20186;-68
2022/04/08 00:18:26;;;;;;;2.08;1.10;;;16.10;53.80;;;;;;5134600;27;20184;-68
2022/04/08 00:20:52;;;;;;;1.95;0.80;;;16.10;53.80;;;;;;5134840;27;20505;-68
2022/04/08 00:23:17;;;;;;;2.80;1.08;;;16.00;53.70;;;;;;5133724;27;20173;-68
2022/04/08 00:25:43;;;;;;;2.05;0.93;;;16.10;53.80;;;;;;5134870;27;20299;-68
2022/04/08 00:28:08;;;;;;;1.38;0.80;;;16.00;53.70;;;;;;5134277;27;20187;-68
2022/04/08 00:30:34;;;;;;;2.35;1.02;;;16.00;53.80;;;;;;5133597;27;20482;-67
2022/04/08 00:32:59;;;;;;;2.90;1.13;;;16.00;53.70;;;;;;5134863;27;20634;-67
2022/04/08 00:35:25;;;;;;;1.85;0.93;;;16.00;53.80;;;;;;5134484;27;20694;-68
2022/04/08 00:37:50;;;;;;;1.30;0.80;;;16.00;53.80;;;;;;5133881;27;20224;-66
2022/04/08 00:40:16;;;;;;;1.95;0.90;;;16.00;53.70;;;;;;5134187;27;20165;-68
2022/04/08 00:42:43;;;;;;;1.73;1.05;;;15.90;53.80;;;;;;5134452;27;20658;-68
2022/04/08 00:45:09;;;;;;;2.95;1.00;;;16.00;53.80;;;;;;5133487;27;20236;-68
2022/04/08 00:47:36;;;;;;;2.90;1.27;;;15.90;53.70;;;;;;5133624;27;20195;-68
2022/04/08 00:50:05;;;;;;;2.30;1.13;;;15.90;53.70;;;;;;5134424;27;20176;-67
2022/04/08 00:52:31;;;;;;;1.90;1.00;;;15.90;53.80;;;;;;5115157;27;20276;-68
2022/04/08 00:54:57;;;;;;;3.40;1.17;;;15.90;53.70;;;;;;5115826;27;20173;-67
2022/04/08 00:57:22;;;;;;;1.67;0.80;;;15.90;53.80;;;;;;5115410;27;20252;-68
2022/04/08 00:59:48;;;;;;;3.53;1.50;;;15.90;53.70;;;;;;5133226;27;20702;-68
2022/04/08 01:02:14;;;;;;;2.63;1.17;;;15.90;53.80;;;;;;5115498;27;20183;-68
2022/04/08 01:04:40;;;;;;;2.58;1.00;;;15.90;53.80;;;;;;5134320;27;20245;-67
2022/04/08 01:07:05;;;;;;;1.70;0.90;;;15.90;53.80;;;;;;5133160;27;20212;-67
2022/04/08 01:09:31;;;;;;;3.08;1.15;;;15.90;53.80;;;;;;5115682;27;20165;-68
2022/04/08 01:11:56;;;;;;;1.58;0.90;;;15.80;53.70;;;;;;5133901;27;20184;-68
2022/04/08 01:14:22;;;;;;;1.23;1.00;;;15.80;53.70;;;;;;5132891;27;20176;-68
2022/04/08 01:16:47;;;;;;;4.32;1.38;;;15.80;53.80;;;;;;5134139;27;20631;-68
2022/04/08 01:19:13;;;;;;;2.63;0.90;;;15.80;53.80;;;;;;5133020;27;20170;-68
2022/04/08 01:21:38;;;;;;;2.15;0.98;;;15.80;53.80;;;;;;5133813;27;20168;-68
2022/04/08 01:24:04;;;;;;;3.30;1.08;;;15.80;53.70;;;;;;5133847;27;20259;-68
2022/04/08 01:26:30;;;;;;;2.38;1.17;;;15.80;53.70;;;;;;5114195;27;20207;-68
2022/04/08 01:28:56;;;;;;;3.22;1.10;;;15.80;53.80;;;;;;5133918;27;20164;-68
2022/04/08 01:31:24;;;;;;;2.80;1.00;;;15.80;53.70;;;;;;5133537;27;20173;-68
2022/04/08 01:33:50;;;;;;;2.47;0.98;;;15.80;53.80;;;;;;5132842;27;20184;-68
2022/04/08 01:36:15;;;;;;;1.27;0.80;;;15.70;53.70;;;;;;5132870;27;20188;-67
2022/04/08 01:38:41;;;;;;;3.45;0.88;;;15.80;53.70;;;;;;5133620;27;20169;-67
2022/04/08 01:41:06;;;;;;;1.92;1.45;;;15.70;53.70;;;;;;5132427;27;20539;-67
2022/04/08 01:43:32;;;;;;;1.48;0.90;;;15.80;53.80;;;;;;5132850;27;20187;-68
2022/04/08 01:45:57;;;;;;;2.13;1.40;;;15.80;53.70;;;;;;5133887;28;20220;-68
2022/04/08 01:48:23;;;;;;;3.78;1.30;;;15.70;53.70;;;;;;5132321;28;20217;-68
2022/04/08 01:50:49;;;;;;;1.23;0.85;;;15.70;53.70;;;;;;5115179;28;20168;-68
2022/04/08 01:53:15;;;;;;;3.22;1.20;;;15.70;53.70;;;;;;5133271;28;20172;-68
2022/04/08 01:55:44;;;;;;;3.20;1.27;;;15.70;53.60;;;;;;5132703;28;20188;-68
2022/04/08 01:58:10;;;;;;;2.22;1.00;;;15.70;53.60;;;;;;5133300;28;20168;-69
2022/04/08 02:00:36;;;;;;;2.72;1.10;;;15.70;53.60;;;;;;5133374;27;20224;-68
2022/04/08 02:03:02;;;;;;;2.40;0.95;;;15.70;53.60;;;;;;5133204;28;20195;-68
2022/04/08 02:05:27;;;;;;;2.80;1.15;;;15.70;53.70;;;;;;5132917;28;20252;-68
2022/04/08 02:07:54;;;;;;;3.15;1.23;;;15.70;53.70;;;;;;5133317;27;20180;-68
2022/04/08 02:10:20;;;;;;;2.47;1.17;;;15.60;53.60;;;;;;5132191;28;20196;-68
2022/04/08 02:12:45;;;;;;;2.80;1.10;;;15.60;53.60;;;;;;5132078;27;20555;-69
2022/04/08 02:15:11;;;;;;;2.67;1.30;;;15.70;53.70;;;;;;5132955;28;20172;-69
2022/04/08 02:17:39;;;;;;;2.85;1.00;;;15.60;53.60;;;;;;5132678;28;20544;-68
2022/04/08 02:20:08;;;;;;;2.58;0.95;;;15.60;53.60;;;;;;5133297;27;20171;-68
2022/04/08 02:22:34;;;;;;;2.55;1.50;;;15.60;53.60;;;;;;5132531;28;20180;-69
2022/04/08 02:24:59;;;;;;;1.40;0.80;;;15.60;53.60;;;;;;5115090;28;20497;-69
2022/04/08 02:27:26;;;;;;;2.10;1.10;;;15.60;53.60;;;;;;5132703;28;20189;-69
2022/04/08 02:29:52;;;;;;;2.38;1.15;;;15.60;53.60;;;;;;5132571;28;20175;-68
2022/04/08 02:32:17;;;;;;;1.50;0.90;;;15.60;53.60;;;;;;5132725;28;20531;-68
2022/04/08 02:34:43;;;;;;;2.47;1.10;;;15.60;53.60;;;;;;5133000;28;20288;-67
2022/04/08 02:37:08;;;;;;;2.60;1.15;;;15.60;53.60;;;;;;5131910;28;20172;-67
2022/04/08 02:39:34;;;;;;;2.08;0.90;;;15.60;53.60;;;;;;5133235;28;20172;-68
2022/04/08 02:41:59;;;;;;;1.95;1.33;;;15.50;53.50;;;;;;5132832;28;20175;-68
2022/04/08 02:44:25;;;;;;;2.28;1.10;;;15.50;53.60;;;;;;5132046;28;20219;-68
2022/04/08 02:46:50;;;;;;;1.27;0.73;;;15.50;53.50;;;;;;5132961;28;20204;-68
2022/04/08 02:49:16;;;;;;;2.65;1.05;;;15.50;53.50;;;;;;5132586;28;20176;-68
2022/04/08 02:51:41;;;;;;;3.20;1.20;;;15.50;53.60;;;;;;5132178;28;20649;-68
2022/04/08 02:54:07;;;;;;;2.15;1.08;;;15.50;53.50;;;;;;5134123;27;20196;-68
2022/04/08 02:56:32;;;;;;;2.17;1.20;;;15.50;53.50;;;;;;5136518;27;20716;-68
2022/04/08 02:59:00;;;;;;;3.15;1.10;;;15.50;53.40;;;;;;5135642;27;20260;-68
2022/04/08 03:01:26;;;;;;;3.35;1.25;;;15.50;53.60;;;;;;5136131;27;20228;-68
2022/04/08 03:03:51;;;;;;;2.80;1.30;;;15.50;53.50;;;;;;5136556;27;20175;-68
2022/04/08 03:06:17;;;;;;;1.55;1.05;;;15.50;53.50;;;;;;5135244;27;20676;-67
2022/04/08 03:08:42;;;;;;;2.70;1.05;;;15.50;53.50;;;;;;5136618;27;20212;-68
2022/04/08 03:11:08;;;;;;;4.00;1.15;;;15.40;53.40;;;;;;5135969;27;20183;-68
2022/04/08 03:13:35;;;;;;;3.78;1.20;;;15.50;53.50;;;;;;5135643;27;20579;-69
2022/04/08 03:16:04;;;;;;;2.05;1.10;;;15.40;53.50;;;;;;5136366;27;20181;-68
2022/04/08 03:18:29;;;;;;;1.90;0.98;;;15.50;53.50;;;;;;5135910;27;20195;-68
2022/04/08 03:20:55;;;;;;;2.08;1.23;;;15.40;53.40;;;;;;5135372;27;20631;-68
2022/04/08 03:23:23;;;;;;;2.58;1.00;;;15.40;53.40;;;;;;5135976;27;20220;-68
2022/04/08 03:25:49;;;;;;;2.65;1.10;;;15.40;53.40;;;;;;5135116;27;20599;-68
2022/04/08 03:28:14;;;;;;;3.03;1.23;;;15.40;53.40;;;;;;5135747;27;20169;-68
2022/04/08 03:30:40;;;;;;;3.03;1.17;;;15.40;53.40;;;;;;5136060;27;20176;-67
2022/04/08 03:33:09;;;;;;;1.85;0.85;;;15.40;53.40;;;;;;5135015;27;20173;-68
2022/04/08 03:35:34;;;;;;;2.33;1.08;;;15.40;53.40;;;;;;5135818;27;20683;-66
2022/04/08 03:38:00;;;;;;;1.83;1.20;;;15.40;53.50;;;;;;5136026;27;20180;-67
2022/04/08 03:40:26;;;;;;;3.55;1.35;;;15.30;53.40;;;;;;5134805;27;20176;-67
2022/04/08 03:42:51;;;;;;;1.38;0.98;;;15.30;53.50;;;;;;5135817;27;20172;-68
2022/04/08 03:45:17;;;;;;;2.17;1.20;;;15.30;53.50;;;;;;5135195;27;20200;-68
2022/04/08 03:47:42;;;;;;;2.72;1.73;;;15.30;53.50;;;;;;5134063;27;20188;-67
2022/04/08 03:50:08;;;;;;;2.15;1.15;;;15.30;53.50;;;;;;5135139;27;20593;-67
2022/04/08 03:52:33;;;;;;;2.25;1.00;;;15.30;53.50;;;;;;5135810;27;20176;-68
2022/04/08 03:55:02;;;;;;;2.65;1.17;;;15.30;53.40;;;;;;5134753;27;20192;-68
2022/04/08 03:57:27;;;;;;;3.58;1.58;;;15.30;53.40;;;;;;5135369;27;20176;-68
2022/04/08 03:59:53;;;;;;;3.72;1.15;;;15.30;53.40;;;;;;5135081;27;20219;-68
2022/04/08 04:02:19;;;;;;;2.05;1.00;;;15.30;53.40;;;;;;5133375;27;20586;-69
2022/04/08 04:04:45;;;;;;;1.80;1.10;;;15.30;53.40;;;;;;5133513;27;20216;-68
2022/04/08 04:07:10;;;;;;;2.20;1.05;;;15.30;53.40;;;;;;5133606;28;20209;-68
2022/04/08 04:09:36;;;;;;;3.25;1.77;;;15.20;53.40;;;;;;5133627;28;20212;-70
2022/04/08 04:12:01;;;;;;;3.10;1.17;;;15.30;53.40;;;;;;5134247;28;20269;-69
2022/04/08 04:14:33;;;;;;;2.90;1.27;;;15.30;53.40;;;;;;5133655;28;20165;-70
2022/04/08 04:16:58;;;;;;;2.33;1.00;;;15.30;53.40;;;;;;5133357;28;20176;-69
2022/04/08 04:19:25;;;;;;;1.77;1.17;;;15.20;53.40;;;;;;5133665;28;20164;-70
2022/04/08 04:21:51;;;;;;;1.63;0.90;;;15.20;53.30;;;;;;5134245;27;20177;-70
2022/04/08 04:24:19;;;;;;;1.75;0.93;;;15.20;53.30;;;;;;5133136;28;20176;-68
2022/04/08 04:26:45;;;;;;;3.45;1.27;;;15.20;53.30;;;;;;5133002;28;20253;-70
2022/04/08 04:29:11;;;;;;;3.47;1.30;;;15.20;53.30;;;;;;5132865;28;20631;-69
2022/04/08 04:31:36;;;;;;;1.67;1.10;;;15.20;53.30;;;;;;5133819;27;20287;-69
2022/04/08 04:34:02;;;;;;;2.90;1.40;;;15.20;53.30;;;;;;5133705;27;20691;-68
2022/04/08 04:36:27;;;;;;;1.42;0.93;;;15.20;53.30;;;;;;5132935;28;20180;-67
2022/04/08 04:38:53;;;;;;;2.47;1.00;;;15.20;53.40;;;;;;5133549;28;20173;-68
2022/04/08 04:41:18;;;;;;;1.63;0.95;;;15.20;53.40;;;;;;5133416;28;20222;-68
2022/04/08 04:43:44;;;;;;;3.20;1.20;;;15.20;53.30;;;;;;5133306;28;20204;-68
2022/04/08 04:46:09;;;;;;;1.63;1.10;;;15.20;53.30;;;;;;5133127;28;20218;-68
2022/04/08 04:48:35;;;;;;;2.08;1.10;;;15.10;53.30;;;;;;5133499;28;20531;-68
2022/04/08 04:51:00;;;;;;;2.58;0.95;;;15.20;53.30;;;;;;5133029;28;20168;-68
2022/04/08 04:53:26;;;;;;;3.10;1.10;;;15.10;53.30;;;;;;5133325;27;20229;-69
2022/04/08 04:55:52;;;;;;;1.52;0.80;;;15.20;53.30;;;;;;5133638;28;20176;-68
2022/04/08 04:58:17;;;;;;;2.45;1.10;;;15.10;53.30;;;;;;5132446;27;20172;-68
2022/04/08 05:00:43;;;;;;;2.70;0.90;;;15.10;53.30;;;;;;5097907;27;1009444;-68
2022/04/08 05:03:09;;;;;;;3.13;1.10;;;15.20;53.30;;;;;;5133682;27;20176;-68
2022/04/08 05:05:37;;;;;;;2.75;0.93;;;15.20;53.30;;;;;;5133477;27;20286;-68
2022/04/08 05:08:03;;;;;;;2.60;1.50;;;15.30;53.30;;;;;;5134317;27;20634;-67
2022/04/08 05:10:30;;;;;;;2.25;0.90;;;15.40;53.20;;;;;;5133749;27;20634;-68
2022/04/08 05:12:55;;;;;;;1.35;0.80;;;15.60;53.10;;;;;;5133436;27;20168;-69
2022/04/08 05:15:21;;;;;;;1.75;0.90;;;15.80;52.80;;;;;;5133764;27;20698;-69
2022/04/08 05:17:46;;;;;;;1.33;0.80;;;16.00;52.60;;;;;;5133741;27;20267;-68
2022/04/08 05:20:12;;;;;;;1.65;0.90;;;16.20;52.30;;;;;;5133105;27;20259;-68
2022/04/08 05:22:38;;;;;;;2.13;1.00;;;16.50;51.70;;;;;;5134240;27;20176;-69
2022/04/08 05:25:04;;;;;;;0.90;0.80;;;16.80;51.40;;;;;;5133900;27;20180;-69
2022/04/08 05:27:42;;;;;;;1.23;0.90;;;17.10;50.90;;;;;;5132734;27;20212;-69
2022/04/08 05:30:15;;;;;;;1.50;1.10;;;17.30;50.40;;;;;;5133325;27;20637;-68
2022/04/08 05:32:41;;;;;;;1.17;0.82;;;17.40;50.00;;;;;;5133449;27;20227;-67
2022/04/08 05:35:07;;;;;;;0.68;0.65;;;17.60;49.80;;;;;;5133620;27;20700;-67
2022/04/08 05:37:38;;;;;;;0.85;0.73;;;17.70;49.70;;;;;;5134163;27;20188;-68
2022/04/08 05:40:04;;;;;;;1.77;0.77;;;17.60;49.80;;;;;;5133079;27;20262;-67
2022/04/08 05:42:29;;;;;;;1.95;1.00;;;17.60;49.90;;;;;;5133315;27;20199;-68
2022/04/08 05:44:55;;;;;;;2.45;0.90;;;17.50;50.10;;;;;;5133503;27;20514;-68
2022/04/08 05:47:28;;;;;;;2.08;0.88;;;17.30;50.30;;;;;;5132447;28;20215;-68
2022/04/08 05:49:53;;;;;;;0.90;0.50;;;17.30;50.50;;;;;;5133561;27;20183;-68
2022/04/08 05:52:19;;;;;;;1.48;0.90;;;17.10;50.60;;;;;;5133425;28;20643;-68
2022/04/08 05:54:44;;;;;;;0.68;0.60;;;17.00;50.70;;;;;;5132776;28;20635;-68
2022/04/08 05:57:10;;;;;;;1.48;0.98;;;16.90;50.90;;;;;;5133023;28;20176;-68
2022/04/08 05:59:37;;;;;;;1.80;0.98;;;16.90;51.00;;;;;;5133582;27;20168;-68
2022/04/08 06:02:05;;;;;;;1.13;0.70;;;16.80;51.20;;;;;;5133082;28;20180;-67
2022/04/08 06:04:30;;;;;;;2.97;1.08;;;16.80;51.30;;;;;;5133302;28;20186;-68
2022/04/08 06:07:02;;;;;;;1.42;0.80;;;16.90;51.30;;;;;;5133341;28;20204;-67
2022/04/08 06:09:30;;;;;;;0.98;0.80;;;17.00;51.20;;;;;;5132356;28;20221;-68
2022/04/08 06:11:56;;;;;;;1.98;0.88;;;17.10;51.10;;;;;;5133333;28;20185;-69
2022/04/08 06:14:21;;;;;;;1.55;0.80;;;17.30;50.70;;;;;;5133184;27;20221;-68
2022/04/08 06:16:47;;;;;;;1.10;0.77;;;17.40;50.60;;;;;;5132679;27;20173;-69
2022/04/08 06:19:12;;;;;;;0.95;0.75;;;17.30;50.60;;;;;;5133024;28;20653;-70
2022/04/08 06:21:38;;;;;;;1.38;0.68;;;17.40;50.50;;;;;;5132767;28;20187;-68
2022/04/08 06:24:04;;;;;;;0.93;0.68;;;17.60;50.40;;;;;;5133161;27;20165;-69
2022/04/08 06:26:29;;;;;;;2.28;0.90;;;17.60;50.30;;;;;;5132796;27;20204;-69
2022/04/08 06:28:55;;;;;;;1.58;1.00;;;17.70;50.10;;;;;;5134044;27;20197;-69
2022/04/08 06:31:20;;;;;;;0.82;0.70;;;17.80;49.90;;;;;;5137013;27;20571;-69
2022/04/08 06:33:46;;;;;;;1.10;0.80;;;17.90;49.90;;;;;;5137215;27;20256;-68
2022/04/08 06:36:11;;;;;;;1.00;0.70;;;17.80;49.90;;;;;;5136147;27;20175;-68
2022/04/08 06:38:37;;;;;;;0.60;0.55;;;17.80;50.00;;;;;;5137056;27;20172;-68
2022/04/08 06:41:02;;;;;;;2.20;1.10;;;17.90;50.00;;;;;;5137160;27;20229;-68
2022/04/08 06:43:28;;;;;;;1.38;0.80;;;18.00;49.80;;;;;;5135975;27;20212;-68
2022/04/08 06:45:54;;;;;;;1.02;0.80;;;18.10;49.60;;;;;;5137048;27;20204;-67
2022/04/08 06:48:20;;;;;;;1.55;0.73;;;18.20;49.50;;;;;;5136670;27;20169;-68
2022/04/08 06:50:45;;;;;;;1.15;0.63;;;18.30;49.30;;;;;;5136119;27;20191;-68
2022/04/08 06:53:11;;;;;;;1.83;0.80;;;18.40;49.20;;;;;;5136672;27;20195;-68
2022/04/08 06:55:36;;;;;;;1.85;0.70;;;18.50;49.10;;;;;;5136570;27;20207;-68
2022/04/08 06:58:03;;;;;;;2.33;0.80;;;18.60;49.60;;;;;;5136068;27;20653;-67
2022/04/08 07:00:32;;;;;;;1.13;0.60;;;18.60;48.90;;;;;;5136367;27;20284;-67
2022/04/08 07:02:57;;;;;;;1.05;0.60;;;18.60;48.90;;;;;;5136670;27;20289;-66
2022/04/08 07:05:25;;;;;;;2.50;0.88;;;18.70;48.80;;;;;;5135391;27;20263;-68
2022/04/08 07:07:50;;;;;;;1.98;0.90;;;18.70;48.80;;;;;;5136477;27;20191;-68
2022/04/08 07:10:16;;;;;;;1.80;0.80;;;18.80;48.70;;;;;;5135943;27;20168;-68
2022/04/08 07:12:44;;;;;;;1.50;0.73;;;18.80;48.60;;;;;;5135821;27;20173;-69
2022/04/08 07:15:10;;;;;;;1.20;0.55;;;18.70;49.30;;;;;;5136174;27;20184;-68
2022/04/08 07:17:36;;;;;;;1.20;0.68;;;18.50;48.90;;;;;;5136174;27;20192;-72
2022/04/08 07:20:02;;;;;;;2.55;0.98;;;18.50;49.20;;;;;;5135560;27;20526;-67
2022/04/08 07:22:28;;;;;;;1.85;0.90;;;18.30;49.60;;;;;;5136004;27;20201;-69
2022/04/08 07:24:53;;;;;;;3.28;1.10;;;18.10;49.80;;;;;;5135449;27;20172;-71
2022/04/08 07:27:19;;;;;;;3.58;1.10;;;18.00;50.10;;;;;;5135775;27;20674;-69
2022/04/08 07:29:45;;;;;;;2.45;0.90;;;18.00;50.30;;;;;;5136098;27;20194;-68
2022/04/08 07:32:11;;;;;;;3.95;1.02;;;18.00;50.30;;;;;;5135111;27;20185;-67
2022/04/08 07:34:36;;;;;;;2.92;1.27;;;18.00;50.40;;;;;;5135921;27;20171;-67
2022/04/08 07:37:05;;;;;;;3.85;1.35;;;18.00;50.40;;;;;;5135806;27;20180;-68
2022/04/08 07:39:31;;;;;;;3.65;1.38;;;18.00;50.40;;;;;;5134931;27;20561;-67
2022/04/08 07:41:59;;;;;;;4.22;1.10;;;18.00;50.60;;;;;;5136021;27;20177;-67
2022/04/08 07:44:25;;;;;;;3.58;1.45;;;17.90;50.60;;;;;;5135610;27;20203;-68
2022/04/08 07:46:50;;;;;;;2.03;1.17;;;18.00;50.80;;;;;;5135139;27;20212;-67
2022/04/08 07:49:16;;;;;;;4.72;1.00;;;17.90;51.10;;;;;;5135420;27;20334;-66
2022/04/08 07:51:44;;;;;;;4.10;1.27;;;17.90;51.00;;;;;;5135605;27;20170;-67
2022/04/08 07:54:10;;;;;;;2.65;0.93;;;17.90;51.00;;;;;;5134372;27;20256;-67
2022/04/08 07:56:35;;;;;;;5.22;1.10;;;17.90;51.00;;;;;;5135401;27;20616;-68
2022/04/08 07:59:04;;;;;;;3.28;1.00;;;17.90;51.10;;;;;;5135523;27;20191;-69
2022/04/08 08:01:29;;;;;;;4.35;1.10;;;18.10;51.00;;;;;;5134120;27;20220;-68
2022/04/08 08:03:55;;;;;;;3.85;1.25;;;18.20;50.80;;;;;;5135375;27;20530;-68
2022/04/08 08:06:20;;;;;;;2.10;0.80;;;18.20;50.80;;;;;;5134909;27;20534;-68
2022/04/08 08:08:46;;;;;;;1.45;0.90;;;18.30;50.60;;;;;;5134721;27;20165;-69
2022/04/08 08:11:13;;;;;;;3.28;0.93;;;18.40;50.40;;;;;;5135027;27;20221;-69
2022/04/08 08:13:39;;;;;;;1.92;0.95;;;18.50;50.40;;;;;;5135325;27;20589;-69
2022/04/08 08:16:06;;;;;;;6.20;0.85;;;18.50;50.50;;;;;;5134445;27;20172;-68
2022/04/08 08:18:31;;;;;;;3.42;1.00;;;18.40;50.50;;;;;;5134954;27;20176;-69
2022/04/08 08:20:57;;;;;;;5.50;0.90;;;18.40;50.80;;;;;;5134911;27;20191;-70
2022/04/08 08:23:22;;;;;;;2.50;0.80;;;18.30;50.80;;;;;;5133875;27;20176;-69
2022/04/08 08:25:48;;;;;;;3.00;1.48;;;18.30;50.90;;;;;;5134750;27;20561;-69
2022/04/08 08:28:14;;;;;;;1.98;1.05;;;18.40;50.80;;;;;;5133978;27;20184;-69
2022/04/08 08:30:39;;;;;;;3.15;0.90;;;18.40;51.40;;;;;;5134882;27;20192;-69
2022/04/08 08:33:06;;;;;;;3.45;1.00;;;18.50;50.70;;;;;;5134640;27;20218;-68
2022/04/08 08:35:32;;;;;;;1.45;1.10;;;18.50;50.70;;;;;;5133953;27;20181;-68
2022/04/08 08:37:58;;;;;;;2.63;1.00;;;18.50;50.70;;;;;;5134739;27;20247;-68
2022/04/08 08:40:23;;;;;;;3.38;1.00;;;18.40;50.90;;;;;;5134398;27;20259;-68
2022/04/08 08:42:49;;;;;;;3.35;0.90;;;18.40;51.00;;;;;;5133996;27;20707;-68
2022/04/08 08:45:17;;;;;;;3.70;1.30;;;18.30;51.20;;;;;;5134247;27;20252;-69
2022/04/08 08:47:46;;;;;;;1.55;1.00;;;18.50;51.30;;;;;;5134476;27;20885;-70
2022/04/08 08:50:11;;;;;;;1.77;0.80;;;18.40;51.10;;;;;;5133415;27;20255;-69
2022/04/08 08:52:37;;;;;;;1.92;0.77;;;18.40;51.10;;;;;;5116299;27;20208;-69
2022/04/08 08:55:09;;;;;;;3.08;1.00;;;18.40;51.00;;;;;;5135178;27;20542;-67
2022/04/08 08:57:39;;;;;;;1.85;0.68;;;18.30;50.90;;;;;;5133916;27;20173;-69
2022/04/08 09:00:12;;;;;;;3.78;1.02;;;18.30;51.20;;;;;;5134217;27;20228;-68
2022/04/08 09:02:38;;;;;;;1.00;0.77;;;18.20;51.40;;;;;;5134205;27;20180;-69
2022/04/08 09:05:20;;;;;;;6.70;1.20;;;18.20;51.60;;;;;;5133380;27;20553;-68
2022/04/08 09:07:59;;;;;;;2.80;1.10;;;18.20;51.60;;;;;;5134395;27;20195;-65
2022/04/08 09:10:29;;;;;;;5.13;0.90;;;18.20;51.50;;;;;;5132949;27;20646;-69
2022/04/08 09:12:55;;;;;;;2.60;0.95;;;18.30;51.60;;;;;;5133625;27;20188;-69
2022/04/08 09:15:21;;;;;;;5.32;1.10;;;18.40;51.50;;;;;;5133934;27;20599;-70
2022/04/08 09:17:46;;;;;;;4.72;0.85;;;18.40;51.60;;;;;;5133175;27;20639;-69
2022/04/08 09:20:12;;;;;;;1.45;0.70;;;18.30;51.70;;;;;;5133626;27;20294;-70
2022/04/08 09:22:37;;;;;;;5.65;1.45;;;18.20;51.70;;;;;;5133797;27;20201;-69
2022/04/08 09:25:10;;;;;;;1.35;0.80;;;18.20;51.70;;;;;;5133149;27;20642;-69
2022/04/08 09:27:41;;;;;;;4.22;1.05;;;18.20;51.90;;;;;;5133571;27;20216;-70
2022/04/08 09:30:08;;;;;;;1.48;0.80;;;18.20;51.90;;;;;;5133648;27;20211;-63
2022/04/08 09:32:34;;;;;;;1.95;0.90;;;18.30;52.10;;;;;;5133141;27;20177;-75
2022/04/08 09:35:14;;;;;;;4.10;1.27;;;18.20;52.00;;;;;;5133747;27;20196;-75
2022/04/08 09:37:40;;;;;;;2.17;1.05;;;18.50;52.20;;;;;;5115618;28;20179;-75
2022/04/08 09:40:08;;;;;;;2.50;0.95;;;18.10;52.00;;;;;;5132737;27;20180;-68
2022/04/08 09:42:44;;;;;;;3.00;0.98;;;18.10;51.90;;;;;;5133746;27;20168;-69
2022/04/08 09:45:10;;;;;;;1.95;0.70;;;18.10;52.10;;;;;;5133320;27;20195;-68
2022/04/08 09:47:39;;;;;;;3.67;0.80;;;18.10;52.10;;;;;;5132981;27;20243;-69
2022/04/08 09:50:07;;;;;;;1.42;0.93;;;18.20;52.10;;;;;;5133510;28;20523;-68
2022/04/08 09:52:35;;;;;;;3.17;1.30;;;18.20;52.00;;;;;;5133017;27;20176;-68
2022/04/08 09:55:03;;;;;;;2.83;0.77;;;18.20;51.90;;;;;;5115808;28;20255;-68
2022/04/08 09:57:30;;;;;;;0.60;0.60;;;18.30;51.90;;;;;;5115275;28;20180;-72
2022/04/08 09:59:58;;;;;;;2.15;1.00;;;18.30;51.90;;;;;;5132678;28;20228;-69
2022/04/08 10:02:25;;;;;;;4.22;1.05;;;18.20;51.90;;;;;;5115062;27;20259;-71
2022/04/08 10:04:50;;;;;;;1.83;1.10;;;18.20;51.90;;;;;;5118343;27;20176;-69
2022/04/08 10:07:16;;;;;;;3.80;0.90;;;18.20;52.10;;;;;;5118166;27;20215;-69
2022/04/08 10:10:14;;;;;;;1.60;0.63;;;18.20;52.20;;;;;;5102512;27;20259;-68
2022/04/08 10:13:00;;;;;;;2.17;0.98;;;18.20;52.10;;;;;;5122080;27;20268;-69
2022/04/08 10:15:40;;;;;;;3.28;0.85;;;18.20;52.10;;;;;;5119933;27;20587;-70
2022/04/08 10:18:06;;;;;;;2.72;1.10;;;18.10;52.00;;;;;;5107590;27;20626;-70
2022/04/08 10:20:35;;;;;;;1.73;0.80;;;18.10;52.00;;;;;;5141874;27;20237;-69
2022/04/08 10:23:09;;;;;;;6.53;0.93;;;18.20;51.90;;;;;;5136514;27;20185;-69
2022/04/08 10:25:43;;;;;;;3.30;0.73;;;18.10;51.80;;;;;;5116753;28;20256;-69
2022/04/08 10:28:10;;;;;;;3.53;0.88;;;18.10;51.80;;;;;;5119749;27;20227;-67
2022/04/08 10:30:44;;;;;;;3.08;1.13;;;18.10;51.80;;;;;;5137272;27;20165;-68
2022/04/08 10:33:11;;;;;;;1.73;0.95;;;18.10;51.80;;;;;;5136898;27;20176;-68
2022/04/08 10:35:37;;;;;;;3.85;0.70;;;18.10;51.80;;;;;;5136428;27;20169;-68
2022/04/08 10:38:07;;;;;;;1.25;0.70;;;18.10;51.80;;;;;;5136945;27;20182;-68
2022/04/08 10:40:34;;;;;;;1.48;0.70;;;18.10;51.80;;;;;;5136812;27;20168;-67
2022/04/08 10:43:01;;;;;;;1.65;1.08;;;18.10;51.70;;;;;;5136241;27;20172;-68
2022/04/08 10:45:26;;;;;;;2.78;0.80;;;18.10;51.70;;;;;;5136811;27;20194;-68
2022/04/08 10:47:52;;;;;;;2.50;0.90;;;18.00;51.60;;;;;;5118802;27;20215;-68
2022/04/08 10:50:30;;;;;;;2.38;0.70;;;18.00;51.80;;;;;;5149953;27;20697;-68
2022/04/08 10:53:03;;;;;;;4.15;1.05;;;18.00;51.80;;;;;;5139401;27;20180;-67
2022/04/08 10:55:29;;;;;;;3.20;1.48;;;18.00;51.80;;;;;;5157287;27;20167;-69
2022/04/08 10:57:56;;;;;;;1.85;0.80;;;18.00;51.80;;;;;;5156458;27;20252;-68
2022/04/08 11:00:22;;;;;;;2.25;0.95;;;18.00;52.30;;;;;;5156759;27;20242;-67
2022/04/08 11:02:47;;;;;;;1.98;0.90;;;18.00;51.50;;;;;;5157485;27;20629;-67
2022/04/08 11:05:15;;;;;;;1.92;1.00;;;18.00;51.50;;;;;;5156271;27;20630;-73
2022/04/08 11:07:41;;;;;;;2.78;1.00;;;18.10;51.60;;;;;;5157316;27;20638;-75
2022/04/08 11:10:11;;;;;;;4.38;0.90;;;18.00;51.50;;;;;;5156335;27;20176;-74
2022/04/08 11:12:43;;;;;;;3.63;0.98;;;17.90;51.40;;;;;;5156981;27;20701;-69
2022/04/08 11:15:15;;;;;;;4.72;1.00;;;17.80;51.60;;;;;;5156465;27;20176;-69
2022/04/08 11:17:41;;;;;;;2.90;0.88;;;17.90;51.70;;;;;;5156183;27;20267;-68
2022/04/08 11:20:14;;;;;;;3.08;1.13;;;17.90;51.50;;;;;;5138156;27;20267;-68
2022/04/08 11:22:44;;;;;;;4.68;0.80;;;18.00;51.50;;;;;;5156872;27;20540;-69
2022/04/08 11:25:12;;;;;;;4.10;0.95;;;18.00;51.50;;;;;;5135264;27;20172;-68
2022/04/08 11:27:37;;;;;;;4.85;1.00;;;18.00;51.40;;;;;;5117475;27;20272;-70
2022/04/08 11:30:09;;;;;;;2.75;1.30;;;18.00;51.60;;;;;;5135858;27;20169;-67
2022/04/08 11:32:35;;;;;;;3.22;1.23;;;18.00;51.40;;;;;;5135197;27;20652;-66
2022/04/08 11:35:11;;;;;;;4.20;1.05;;;17.90;51.50;;;;;;5136064;27;20267;-61
2022/04/08 11:37:37;;;;;;;2.67;0.80;;;17.90;51.60;;;;;;5136045;27;20313;-69
2022/04/08 11:40:04;;;;;;;7.55;1.13;;;17.90;51.80;;;;;;5135151;27;20263;-66
2022/04/08 11:42:30;;;;;;;9.50;1.45;;;17.90;51.70;;;;;;5135463;27;20176;-67
2022/04/08 11:44:56;;;;;;;7.28;1.50;;;17.90;51.70;;;;;;5117429;27;20228;-66
2022/04/08 11:47:29;;;;;;;4.70;1.35;;;17.90;51.60;;;;;;5116272;27;20563;-66
2022/04/08 11:50:02;;;;;;;7.53;1.27;;;18.00;51.50;;;;;;5135814;27;20229;-66
2022/04/08 11:52:27;;;;;;;4.40;1.15;;;18.00;51.40;;;;;;5134675;27;20883;-75
2022/04/08 11:54:54;;;;;;;3.38;1.10;;;18.00;51.50;;;;;;5135752;27;20164;-68
2022/04/08 11:57:33;;;;;;;3.05;1.00;;;17.90;51.50;;;;;;5135178;27;20237;-67
2022/04/08 11:59:59;;;;;;;3.22;0.90;;;17.80;51.60;;;;;;5134706;27;20224;-68
2022/04/08 12:02:25;;;;;;;5.47;1.40;;;17.80;51.80;;;;;;5135302;27;20569;-68
2022/04/08 12:04:51;;;;;;;7.55;0.93;;;17.80;51.80;;;;;;5117019;27;20537;-69
2022/04/08 12:07:23;;;;;;;7.97;1.30;;;17.80;51.80;;;;;;5134202;27;20217;-69
2022/04/08 12:09:52;;;;;;;3.53;0.90;;;17.90;51.80;;;;;;5135203;27;20168;-69
2022/04/08 12:12:24;;;;;;;4.72;1.00;;;17.90;51.80;;;;;;5134765;27;20274;-69
2022/04/08 12:14:50;;;;;;;4.78;1.30;;;17.90;51.80;;;;;;5133295;27;20180;-69
2022/04/08 12:17:15;;;;;;;3.00;0.95;;;17.90;51.90;;;;;;5134623;27;20185;-68
2022/04/08 12:19:41;;;;;;;5.55;1.23;;;17.80;51.90;;;;;;5135195;27;20173;-69
2022/04/08 12:22:11;;;;;;;5.63;1.08;;;17.90;52.00;;;;;;5115635;27;20173;-70
2022/04/08 12:24:57;;;;;;;2.95;0.90;;;17.90;52.10;;;;;;5150800;27;20178;-69
2022/04/08 12:27:24;;;;;;;2.78;1.02;;;17.90;52.00;;;;;;5134695;27;20228;-72
2022/04/08 12:30:08;;;;;;;7.18;1.23;;;17.90;51.90;;;;;;5155557;27;20702;-69
2022/04/08 12:32:39;;;;;;;2.30;1.02;;;17.90;52.00;;;;;;5155597;27;20266;-69
2022/04/08 12:35:06;;;;;;;2.70;1.00;;;17.90;51.90;;;;;;5154735;27;20206;-70
2022/04/08 12:37:32;;;;;;;6.75;1.55;;;17.80;51.90;;;;;;5155555;27;20191;-68
2022/04/08 12:39:58;;;;;;;5.38;1.10;;;17.90;52.10;;;;;;5155603;27;20251;-67
2022/04/08 12:42:23;;;;;;;3.85;1.70;;;17.80;52.00;;;;;;5154283;27;20713;-70
2022/04/08 12:44:49;;;;;;;5.10;1.23;;;17.80;52.10;;;;;;5155347;27;20274;-68
2022/04/08 12:47:17;;;;;;;5.28;1.30;;;17.80;52.10;;;;;;5154984;27;20222;-68